createdAt,value
2019-01-03T00:00:05.338Z,24.91
2019-01-03T00:02:31.893Z,24.87
2019-01-03T00:04:56.668Z,24.92
2019-01-03T00:14:11.105Z,24.88
2019-01-03T00:16:34.657Z,25.01
2019-01-03T00:19:39.833Z,25.03
2019-01-03T00:22:42.678Z,25.07
2019-01-03T00:25:12.059Z,25.06
2019-01-03T00:27:50.383Z,25.02
2019-01-03T00:30:22.568Z,24.89
2019-01-03T00:32:56.578Z,24.78
2019-01-03T00:35:21.256Z,24.63
2019-01-03T00:37:50.352Z,24.59
2019-01-03T00:40:15.048Z,24.63
2019-01-03T00:42:35.324Z,24.65
2019-01-03T00:45:08.323Z,24.68
2019-01-03T00:47:40.489Z,24.70
2019-01-03T00:50:18.392Z,24.76
2019-01-03T00:52:48.310Z,24.83
2019-01-03T00:55:28.620Z,24.77
2019-01-03T00:58:07.001Z,24.74
2019-01-03T01:00:31.776Z,24.83
2019-01-03T01:02:57.599Z,24.75
2019-01-03T01:05:21.737Z,24.69
2019-01-03T01:07:57.629Z,24.72
2019-01-03T01:10:22.630Z,24.67
2019-01-03T01:13:00.736Z,24.73
2019-01-03T01:15:25.636Z,24.68
2019-01-03T01:18:06.958Z,24.62
2019-01-03T01:20:48.710Z,24.59
2019-01-03T01:23:13.402Z,24.49
2019-01-03T01:25:39.338Z,24.52
2019-01-03T01:28:16.899Z,24.49
2019-01-03T01:30:44.378Z,24.36
2019-01-03T01:33:10.302Z,24.53
2019-01-03T01:35:43.338Z,24.59
2019-01-03T01:38:13.102Z,24.54
2019-01-03T01:40:45.479Z,24.55
2019-01-03T01:43:19.260Z,24.61
2019-01-03T01:45:57.700Z,24.84
2019-01-03T01:48:23.615Z,24.98
2019-01-03T01:53:52.054Z,25.40
2019-01-03T01:56:30.023Z,25.47
2019-01-03T01:58:57.175Z,25.66
2019-01-03T02:01:25.964Z,25.74
2019-01-03T02:03:58.768Z,25.78
2019-01-03T02:06:25.141Z,25.88
2019-01-03T02:08:47.845Z,25.60
2019-01-03T02:11:13.553Z,25.23
2019-01-03T02:13:40.137Z,25.19
2019-01-03T02:16:02.820Z,25.02
2019-01-03T02:18:50.972Z,24.79
2019-01-03T02:21:26.593Z,24.74
2019-01-03T02:23:47.929Z,24.47
2019-01-03T02:26:14.289Z,24.43
2019-01-03T02:28:38.548Z,24.42
2019-01-03T02:31:03.356Z,24.50
2019-01-03T02:33:32.446Z,24.38
2019-01-03T02:35:58.386Z,24.23
2019-01-03T02:38:25.019Z,24.33
2019-01-03T02:40:53.726Z,24.28
2019-01-03T02:43:19.227Z,24.16
2019-01-03T02:45:44.140Z,24.00
2019-01-03T02:48:10.555Z,23.95
2019-01-03T02:50:49.442Z,23.98
2019-01-03T02:53:35.795Z,23.83
2019-01-03T02:56:04.253Z,23.73
2019-01-03T03:18:57.263Z,21.53
2019-01-03T03:21:23.931Z,21.39
2019-01-03T03:23:54.278Z,21.76
2019-01-03T03:26:23.969Z,22.09
2019-01-03T03:28:54.441Z,22.36
2019-01-03T03:31:20.625Z,22.58
2019-01-03T03:33:59.792Z,22.73
2019-01-03T03:36:27.054Z,22.78
2019-01-03T03:38:55.496Z,22.91
2019-01-03T03:41:28.553Z,23.12
2019-01-03T03:43:56.176Z,23.22
2019-01-03T03:46:43.173Z,23.21
2019-01-03T03:49:22.480Z,23.09
2019-01-03T03:51:52.201Z,22.94
2019-01-03T03:54:31.381Z,22.80
2019-01-03T03:57:17.619Z,22.87
2019-01-03T03:59:42.369Z,23.01
2019-01-03T04:02:31.999Z,23.06
2019-01-03T04:05:07.203Z,23.01
2019-01-03T04:07:44.443Z,23.13
2019-01-03T04:10:11.424Z,23.13
2019-01-03T04:12:52.942Z,23.00
2019-01-03T04:15:32.606Z,23.10
2019-01-03T04:17:59.498Z,23.04
2019-01-03T04:20:24.770Z,23.05
2019-01-03T04:22:59.792Z,23.12
2019-01-03T04:25:29.031Z,23.25
2019-01-03T04:27:54.768Z,23.45
2019-01-03T04:30:21.771Z,23.60
2019-01-03T04:32:47.222Z,23.74
2019-01-03T04:35:07.531Z,23.91
2019-01-03T04:37:49.174Z,24.00
2019-01-03T04:40:24.391Z,24.07
2019-01-03T04:42:50.679Z,24.04
2019-01-03T04:45:24.657Z,23.90
2019-01-03T04:50:48.570Z,23.78
2019-01-03T04:53:15.436Z,23.81
2019-01-03T04:55:46.355Z,23.71
2019-01-03T04:58:17.424Z,23.60
2019-01-03T05:00:44.304Z,23.56
2019-01-03T05:03:29.207Z,23.50
2019-01-03T05:05:53.074Z,23.47
2019-01-03T05:08:18.554Z,23.46
2019-01-03T05:11:01.116Z,23.42
2019-01-03T05:14:03.085Z,23.41
2019-01-03T05:16:07.241Z,23.33
2019-01-03T05:18:42.647Z,23.20
2019-01-03T05:21:07.935Z,23.18
2019-01-03T05:23:42.736Z,23.23
2019-01-03T05:26:08.736Z,23.29
2019-01-03T05:28:38.826Z,23.48
2019-01-03T05:31:01.727Z,23.66
2019-01-03T05:33:29.223Z,23.86
2019-01-03T05:36:07.051Z,23.94
2019-01-03T05:38:35.021Z,24.09
2019-01-03T05:41:08.531Z,24.27
2019-01-03T05:43:39.071Z,24.40
2019-01-03T05:46:09.752Z,24.23
2019-01-03T05:48:38.539Z,24.41
2019-01-03T05:51:04.870Z,24.31
2019-01-03T05:53:46.050Z,24.15
2019-01-03T05:56:12.488Z,24.08
2019-01-03T05:58:38.684Z,23.99
2019-01-03T06:01:03.794Z,23.81
2019-01-03T06:03:42.132Z,23.75
2019-01-03T06:06:26.695Z,23.71
2019-01-03T06:09:04.792Z,23.62
2019-01-03T06:11:25.704Z,23.51
2019-01-03T06:13:50.824Z,23.43
2019-01-03T06:16:16.418Z,23.45
2019-01-03T06:18:51.602Z,23.46
2019-01-03T06:21:17.272Z,23.43
2019-01-03T06:23:49.463Z,23.46
2019-01-03T06:26:09.851Z,23.61
2019-01-03T06:28:50.602Z,23.83
2019-01-03T06:31:20.942Z,23.98
2019-01-03T06:33:43.263Z,24.10
2019-01-03T06:36:15.843Z,24.22
2019-01-03T06:38:40.535Z,24.23
2019-01-03T06:41:05.050Z,24.16
2019-01-03T06:43:37.293Z,24.16
2019-01-03T06:46:18.757Z,24.01
2019-01-03T06:48:46.139Z,23.92
2019-01-03T06:51:12.060Z,23.82
2019-01-03T06:53:56.308Z,23.71
2019-01-03T06:56:24.903Z,23.54
2019-01-03T06:58:51.020Z,23.44
2019-01-03T07:01:29.230Z,23.45
2019-01-03T07:04:01.093Z,23.33
2019-01-03T07:06:26.003Z,23.26
2019-01-03T07:09:07.276Z,23.22
2019-01-03T07:11:33.296Z,23.11
2019-01-03T07:14:11.496Z,23.09
2019-01-03T07:16:56.574Z,23.11
2019-01-03T07:19:37.860Z,23.27
2019-01-03T07:22:20.577Z,23.38
2019-01-03T07:25:06.683Z,23.46
2019-01-03T07:27:41.501Z,23.59
2019-01-03T07:30:05.986Z,23.61
2019-01-03T07:32:30.577Z,23.63
2019-01-03T07:34:55.372Z,23.62
2019-01-03T07:37:36.663Z,23.52
2019-01-03T07:40:02.788Z,23.29
2019-01-03T07:42:27.677Z,23.25
2019-01-03T07:44:56.774Z,23.17
2019-01-03T07:47:25.565Z,23.15
2019-01-03T07:49:50.056Z,23.07
2019-01-03T07:52:31.538Z,23.00
2019-01-03T07:55:00.636Z,22.98
2019-01-03T07:57:27.547Z,23.00
2019-01-03T08:00:00.776Z,23.16
2019-01-03T08:02:25.669Z,23.38
2019-01-03T08:04:51.592Z,23.48
2019-01-03T08:07:17.840Z,23.56
2019-01-03T08:09:42.725Z,23.70
2019-01-03T08:12:08.746Z,23.68
2019-01-03T08:14:34.483Z,23.56
2019-01-03T08:17:00.383Z,23.57
2019-01-03T08:19:41.767Z,23.47
2019-01-03T08:22:13.833Z,23.42
2019-01-03T08:24:58.086Z,23.28
2019-01-03T08:27:22.981Z,23.19
2019-01-03T08:29:47.676Z,23.11
2019-01-03T08:32:12.351Z,22.99
2019-01-03T08:34:35.194Z,22.92
2019-01-03T08:37:13.430Z,22.83
2019-01-03T08:39:55.735Z,22.79
2019-01-03T08:42:20.451Z,22.71
2019-01-03T08:44:53.416Z,22.73
2019-01-03T08:47:34.900Z,22.67
2019-01-03T08:49:59.917Z,22.78
2019-01-03T08:52:39.031Z,22.88
2019-01-03T08:55:13.776Z,23.03
2019-01-03T08:57:34.971Z,23.16
2019-01-03T09:00:05.173Z,23.26
2019-01-03T09:02:30.090Z,23.36
2019-01-03T09:04:55.298Z,23.44
2019-01-03T09:07:19.784Z,23.48
2019-01-03T09:09:44.803Z,23.42
2019-01-03T09:12:10.607Z,23.39
2019-01-03T09:14:51.785Z,23.23
2019-01-03T09:17:17.606Z,23.21
2019-01-03T09:19:42.810Z,23.19
2019-01-03T09:22:11.901Z,23.13
2019-01-03T09:24:41.102Z,23.23
2019-01-03T09:27:26.581Z,23.37
2019-01-03T09:29:51.480Z,23.49
2019-01-03T09:32:16.175Z,23.55
2019-01-03T09:34:47.110Z,23.61
2019-01-03T09:37:31.365Z,23.72
2019-01-03T09:39:56.269Z,23.76
2019-01-03T09:42:31.192Z,23.72
2019-01-03T09:44:55.377Z,23.64
2019-01-03T09:47:02.458Z,23.56
2019-01-03T09:49:10.448Z,23.52
2019-01-03T09:51:17.697Z,23.42
2019-01-03T09:53:25.557Z,23.38
2019-01-03T09:55:32.773Z,23.29
2019-01-03T09:57:40.076Z,23.27
2019-01-03T09:59:48.250Z,23.14
2019-01-03T10:01:55.476Z,23.01
2019-01-03T10:04:04.421Z,22.99
2019-01-03T10:06:11.868Z,22.98
2019-01-03T10:08:19.678Z,22.87
2019-01-03T10:10:31.948Z,22.77
2019-01-03T10:12:39.287Z,22.78
2019-01-03T10:14:46.532Z,22.65
2019-01-03T10:16:53.600Z,22.68
2019-01-03T10:19:00.779Z,22.63
2019-01-03T10:21:08.707Z,22.63
2019-01-03T10:23:15.546Z,22.54
2019-01-03T10:25:22.872Z,22.56
2019-01-03T10:27:30.119Z,22.65
2019-01-03T10:29:37.208Z,22.73
2019-01-03T10:31:44.585Z,22.86
2019-01-03T10:33:51.897Z,22.99
2019-01-03T10:35:59.168Z,23.12
2019-01-03T10:38:06.537Z,23.21
2019-01-03T10:40:13.958Z,23.30
2019-01-03T10:42:21.076Z,23.41
2019-01-03T10:44:28.214Z,23.47
2019-01-03T10:46:35.474Z,23.59
2019-01-03T10:48:42.845Z,23.66
2019-01-03T10:50:50.201Z,23.67
2019-01-03T10:52:57.745Z,23.78
2019-01-03T10:55:05.677Z,23.78
2019-01-03T10:57:13.011Z,23.71
2019-01-03T10:59:20.409Z,23.62
2019-01-03T11:01:27.803Z,23.57
2019-01-03T11:03:35.218Z,23.49
2019-01-03T11:05:46.067Z,23.35
2019-01-03T11:07:53.365Z,23.28
2019-01-03T11:10:00.762Z,23.11
2019-01-03T11:12:07.826Z,23.03
2019-01-03T11:14:14.964Z,23.03
2019-01-03T11:16:22.853Z,23.00
2019-01-03T11:18:30.162Z,22.94
2019-01-03T11:20:37.457Z,22.88
2019-01-03T11:22:45.426Z,22.85
2019-01-03T11:24:53.015Z,22.80
2019-01-03T11:27:00.361Z,22.51
2019-01-03T11:29:15.061Z,22.61
2019-01-03T11:31:23.052Z,22.61
2019-01-03T11:33:30.423Z,22.63
2019-01-03T11:35:37.753Z,22.57
2019-01-03T11:37:45.091Z,22.71
2019-01-03T11:39:52.174Z,22.84
2019-01-03T11:41:59.327Z,22.93
2019-01-03T11:44:06.725Z,23.12
2019-01-03T11:46:13.919Z,23.29
2019-01-03T11:48:21.322Z,23.40
2019-01-03T11:50:28.666Z,23.54
2019-01-03T11:52:35.735Z,23.71
2019-01-03T11:54:42.941Z,23.82
2019-01-03T11:56:50.218Z,23.87
2019-01-03T11:59:04.454Z,23.97
2019-01-03T12:01:11.919Z,24.02
2019-01-03T12:03:19.347Z,24.11
2019-01-03T12:05:26.344Z,24.11
2019-01-03T12:07:34.138Z,24.10
2019-01-03T12:09:42.714Z,23.94
2019-01-03T12:11:50.113Z,23.77
2019-01-03T12:13:57.142Z,23.53
2019-01-03T12:16:05.136Z,23.47
2019-01-03T12:18:12.011Z,23.37
2019-01-03T12:20:19.169Z,23.19
2019-01-03T12:22:26.464Z,23.09
2019-01-03T12:24:33.940Z,23.07
2019-01-03T12:26:41.855Z,22.96
2019-01-03T12:28:48.813Z,22.91
2019-01-03T12:30:56.006Z,22.89
2019-01-03T12:33:03.382Z,22.80
2019-01-03T12:35:11.355Z,22.81
2019-01-03T12:37:18.572Z,22.95
2019-01-03T12:39:25.655Z,23.11
2019-01-03T12:41:32.796Z,23.23
2019-01-03T12:43:40.013Z,23.38
2019-01-03T12:45:47.427Z,23.53
2019-01-03T12:47:54.782Z,23.65
2019-01-03T12:50:02.053Z,23.77
2019-01-03T12:52:09.061Z,23.83
2019-01-03T12:54:16.335Z,23.89
2019-01-03T12:56:23.707Z,24.01
2019-01-03T12:58:30.713Z,24.08
2019-01-03T13:00:37.833Z,24.15
2019-01-03T13:02:45.083Z,24.22
2019-01-03T13:04:52.315Z,24.36
2019-01-03T13:06:59.754Z,24.43
2019-01-03T13:09:10.283Z,24.53
2019-01-03T13:11:17.395Z,24.64
2019-01-03T13:13:24.583Z,24.72
2019-01-03T13:15:32.452Z,24.78
2019-01-03T13:17:39.994Z,24.85
2019-01-03T13:19:47.207Z,24.90
2019-01-03T13:21:54.493Z,24.95
2019-01-03T13:24:01.829Z,25.00
2019-01-03T13:26:08.869Z,25.01
2019-01-03T13:28:15.926Z,25.09
2019-01-03T13:30:23.341Z,25.12
2019-01-03T13:32:30.466Z,25.13
2019-01-03T13:34:37.722Z,25.17
2019-01-03T13:36:45.130Z,25.19
2019-01-03T13:38:52.294Z,25.21
2019-01-03T13:40:59.599Z,25.24
2019-01-03T13:43:07.095Z,25.23
2019-01-03T13:45:14.788Z,25.33
2019-01-03T13:47:22.866Z,25.44
2019-01-03T13:49:30.235Z,25.42
2019-01-03T13:51:37.571Z,25.29
2019-01-03T13:53:45.698Z,25.19
2019-01-03T13:55:54.377Z,25.06
2019-01-03T13:58:01.648Z,24.94
2019-01-03T14:00:10.432Z,24.77
2019-01-03T14:02:17.539Z,24.66
2019-01-03T14:04:24.766Z,24.52
2019-01-03T14:06:33.106Z,24.50
2019-01-03T14:08:40.420Z,24.57
2019-01-03T14:10:48.203Z,24.52
2019-01-03T14:12:55.518Z,24.47
2019-01-03T14:15:02.735Z,24.63
2019-01-03T14:17:10.133Z,24.74
2019-01-03T14:19:17.360Z,24.80
2019-01-03T14:21:24.573Z,24.92
2019-01-03T14:23:31.914Z,25.06
2019-01-03T14:25:39.105Z,25.16
2019-01-03T14:27:46.930Z,25.25
2019-01-03T14:29:54.362Z,25.30
2019-01-03T14:32:02.575Z,25.44
2019-01-03T14:34:09.873Z,25.52
2019-01-03T14:36:17.120Z,25.59
2019-01-03T14:38:24.882Z,25.66
2019-01-03T14:40:31.986Z,25.62
2019-01-03T14:42:38.787Z,25.52
2019-01-03T14:44:46.099Z,25.44
2019-01-03T14:46:52.966Z,25.44
2019-01-03T14:49:00.714Z,25.27
2019-01-03T14:51:08.197Z,25.20
2019-01-03T14:53:15.499Z,25.03
2019-01-03T14:55:22.801Z,25.03
2019-01-03T14:57:30.680Z,25.02
2019-01-03T14:59:38.076Z,25.09
2019-01-03T15:01:46.118Z,25.03
2019-01-03T15:03:53.574Z,25.13
2019-01-03T15:06:01.075Z,25.29
2019-01-03T15:08:08.911Z,25.41
2019-01-03T15:10:16.080Z,25.57
2019-01-03T15:12:23.935Z,25.71
2019-01-03T15:14:31.355Z,25.81
2019-01-03T15:16:38.640Z,25.98
2019-01-03T15:18:45.705Z,26.06
2019-01-03T15:20:52.832Z,26.10
2019-01-03T15:23:00.238Z,26.06
2019-01-03T15:25:08.017Z,26.00
2019-01-03T15:27:15.502Z,25.92
2019-01-03T15:29:22.649Z,25.89
2019-01-03T15:31:29.958Z,25.84
2019-01-03T15:33:37.516Z,25.75
2019-01-03T15:35:44.804Z,25.76
2019-01-03T15:37:52.455Z,25.74
2019-01-03T15:40:00.218Z,25.66
2019-01-03T15:42:07.411Z,25.67
2019-01-03T15:44:14.240Z,25.67
2019-01-03T15:46:21.484Z,25.66
2019-01-03T15:48:28.451Z,25.67
2019-01-03T15:50:35.558Z,25.56
2019-01-03T15:52:42.922Z,25.73
2019-01-03T15:54:51.673Z,25.89
2019-01-03T15:56:59.108Z,25.96
2019-01-03T15:59:06.405Z,25.95
2019-01-03T16:01:14.650Z,26.06
2019-01-03T16:03:23.299Z,26.10
2019-01-03T16:05:31.944Z,26.14
2019-01-03T16:07:48.274Z,26.12
2019-01-03T16:09:56.694Z,26.08
2019-01-03T16:12:04.937Z,26.05
2019-01-03T16:14:12.685Z,26.05
2019-01-03T16:16:20.217Z,25.99
2019-01-03T16:18:28.245Z,25.93
2019-01-03T16:20:36.768Z,25.85
2019-01-03T16:22:44.317Z,25.78
2019-01-03T16:24:52.938Z,25.71
2019-01-03T16:27:00.483Z,25.70
2019-01-03T16:29:07.947Z,25.72
2019-01-03T16:31:15.377Z,25.73
2019-01-03T16:33:24.410Z,25.68
2019-01-03T16:35:32.565Z,25.64
2019-01-03T16:37:42.722Z,25.63
2019-01-03T16:39:50.225Z,25.68
2019-01-03T16:41:57.921Z,25.70
2019-01-03T16:44:09.041Z,25.82
2019-01-03T16:46:17.021Z,25.95
2019-01-03T16:48:25.791Z,26.03
2019-01-03T16:50:33.989Z,26.15
2019-01-03T16:52:42.501Z,26.26
2019-01-03T16:54:49.888Z,26.36
2019-01-03T16:56:57.143Z,26.39
2019-01-03T16:59:04.595Z,26.42
2019-01-03T17:01:12.025Z,26.38
2019-01-03T17:03:20.094Z,26.36
2019-01-03T17:05:27.470Z,26.27
2019-01-03T17:07:34.937Z,26.27
2019-01-03T17:09:42.368Z,26.22
2019-01-03T17:11:50.743Z,26.22
2019-01-03T17:13:57.998Z,26.20
2019-01-03T17:17:18.450Z,26.10
2019-01-03T17:19:48.456Z,25.95
2019-01-03T17:24:47.898Z,25.63
2019-01-03T17:30:36.515Z,25.74
2019-01-03T17:33:13.362Z,25.99
2019-01-03T17:35:16.578Z,26.15
2019-01-03T17:38:08.073Z,26.27
2019-01-03T17:40:13.216Z,26.38
2019-01-03T17:43:06.233Z,26.50
2019-01-03T17:46:06.284Z,26.53
2019-01-03T17:48:46.261Z,26.60
2019-01-03T17:51:42.309Z,26.41
2019-01-03T17:54:19.431Z,26.25
2019-01-03T17:56:33.705Z,26.11
2019-01-03T17:58:58.967Z,26.03
2019-01-03T18:01:12.853Z,25.94
2019-01-03T18:04:09.896Z,25.88
2019-01-03T18:09:16.698Z,25.83
2019-01-03T18:11:37.429Z,25.80
2019-01-03T18:14:13.018Z,25.75
2019-01-03T18:16:24.955Z,25.78
2019-01-03T18:19:04.587Z,25.91
2019-01-03T18:21:13.896Z,26.10
2019-01-03T18:23:22.183Z,26.30
2019-01-03T18:26:01.205Z,26.47
2019-01-03T18:31:04.222Z,26.79
2019-01-03T18:33:50.005Z,26.77
2019-01-03T18:36:29.079Z,26.76
2019-01-03T18:38:49.984Z,26.76
2019-01-03T18:41:03.973Z,26.50
2019-01-03T18:43:40.315Z,26.34
2019-01-03T18:45:49.676Z,26.38
2019-01-03T18:50:11.642Z,26.19
2019-01-03T18:50:39.001Z,26.30
2019-01-03T18:52:19.296Z,26.22
2019-01-03T18:54:26.855Z,26.26
2019-01-03T18:56:39.497Z,26.33
2019-01-03T19:01:47.889Z,26.38
2019-01-03T19:04:16.643Z,26.19
2019-01-03T19:06:58.193Z,26.10
2019-01-03T19:09:31.637Z,26.18
2019-01-03T19:12:02.394Z,26.25
2019-01-03T19:14:19.352Z,26.14
2019-01-03T19:16:36.072Z,26.13
2019-01-03T19:19:47.235Z,26.09
2019-01-03T19:22:10.327Z,26.09
2019-01-03T19:24:22.801Z,25.97
2019-01-03T19:26:51.361Z,25.97
2019-01-03T19:29:52.423Z,25.95
2019-01-03T19:32:18.728Z,26.04
2019-01-03T19:34:41.604Z,25.97
2019-01-03T19:39:37.425Z,25.84
2019-01-03T19:42:15.796Z,25.89
2019-01-03T19:44:26.749Z,25.94
2019-01-03T19:59:31.274Z,25.96
2019-01-03T20:02:03.193Z,26.02
2019-01-03T20:04:29.621Z,26.01
2019-01-03T20:06:43.590Z,25.97
2019-01-03T20:11:49.612Z,26.08
2019-01-03T20:14:22.087Z,26.27
2019-01-03T20:16:35.918Z,26.39
2019-01-03T20:18:49.874Z,26.56
2019-01-03T20:21:01.141Z,26.65
2019-01-03T20:23:24.089Z,26.73
2019-01-03T20:25:36.400Z,26.77
2019-01-03T20:27:43.046Z,26.73
2019-01-03T20:29:50.244Z,26.68
2019-01-03T20:32:16.860Z,26.57
2019-01-03T20:34:24.279Z,26.42
2019-01-03T20:36:31.656Z,26.35
2019-01-03T20:38:39.058Z,26.27
2019-01-03T20:40:46.345Z,26.16
2019-01-03T20:42:58.821Z,26.10
2019-01-03T20:47:04.170Z,26.03
2019-01-03T20:47:40.722Z,25.99
2019-01-03T20:50:12.985Z,25.84
2019-01-03T20:52:26.437Z,25.87
2019-01-03T20:54:34.396Z,25.84
2019-01-03T20:57:30.015Z,25.76
2019-01-03T20:59:53.024Z,25.73
2019-01-03T21:02:07.136Z,25.70
2019-01-03T21:04:24.491Z,25.62
2019-01-03T21:06:48.696Z,25.63
2019-01-03T21:08:54.591Z,25.64
2019-01-03T21:11:01.861Z,25.59
2019-01-03T21:13:09.059Z,25.53
2019-01-03T21:15:19.026Z,25.54
2019-01-03T21:17:27.132Z,25.48
2019-01-03T21:19:34.259Z,25.47
2019-01-03T21:21:41.899Z,25.51
2019-01-03T21:23:49.975Z,25.67
2019-01-03T21:26:00.787Z,25.77
2019-01-03T21:28:08.582Z,25.92
2019-01-03T21:30:18.356Z,25.99
2019-01-03T21:32:26.405Z,26.07
2019-01-03T21:34:34.396Z,26.08
2019-01-03T21:36:41.641Z,26.10
2019-01-03T21:38:48.989Z,26.07
2019-01-03T21:40:57.896Z,25.99
2019-01-03T21:43:05.484Z,25.89
2019-01-03T21:45:12.896Z,25.83
2019-01-03T21:47:21.103Z,25.74
2019-01-03T21:49:28.519Z,25.66
2019-01-03T21:51:36.781Z,25.56
2019-01-03T21:53:44.149Z,25.48
2019-01-03T21:56:00.248Z,25.45
2019-01-03T21:58:07.966Z,25.37
2019-01-03T22:00:16.617Z,25.38
2019-01-03T22:02:25.230Z,25.43
2019-01-03T22:04:32.874Z,25.53
2019-01-03T22:06:40.193Z,25.63
2019-01-03T22:08:47.493Z,25.70
2019-01-03T22:10:54.853Z,25.74
2019-01-03T22:13:02.224Z,25.78
2019-01-03T22:15:10.518Z,25.80
2019-01-03T22:17:18.119Z,25.70
2019-01-03T22:19:25.487Z,25.64
2019-01-03T22:21:51.360Z,25.62
2019-01-03T22:23:58.959Z,25.53
2019-01-03T22:26:12.032Z,25.37
2019-01-03T22:28:27.717Z,25.18
2019-01-03T22:30:36.789Z,25.18
2019-01-03T22:33:01.096Z,25.29
2019-01-03T22:35:12.882Z,25.26
2019-01-03T22:37:36.150Z,25.25
2019-01-03T22:39:44.930Z,25.25
2019-01-03T22:42:03.649Z,25.20
2019-01-03T22:44:19.346Z,25.26
2019-01-03T22:47:17.764Z,25.34
2019-01-03T22:49:08.674Z,25.33
2019-01-03T22:51:24.111Z,25.34
2019-01-03T22:53:46.750Z,25.35
2019-01-03T22:55:54.786Z,25.45
2019-01-03T22:58:44.132Z,25.54
2019-01-03T23:00:59.276Z,25.68
2019-01-03T23:03:37.000Z,25.77
2019-01-03T23:05:49.344Z,25.83
2019-01-03T23:08:08.449Z,25.95
2019-01-03T23:10:15.362Z,26.12
2019-01-03T23:12:33.272Z,26.17
2019-01-03T23:14:40.632Z,26.19
2019-01-03T23:16:54.438Z,26.30
2019-01-03T23:19:10.943Z,26.35
2019-01-03T23:21:24.464Z,26.45
2019-01-03T23:23:37.458Z,26.52
2019-01-03T23:25:52.147Z,26.50
2019-01-03T23:28:19.503Z,26.35
2019-01-03T23:30:30.419Z,26.32
2019-01-03T23:32:42.617Z,26.31
2019-01-03T23:34:50.271Z,26.30
2019-01-03T23:37:06.592Z,26.22
2019-01-03T23:39:22.414Z,26.09
2019-01-03T23:41:38.931Z,26.11
2019-01-03T23:43:58.047Z,25.93
2019-01-03T23:46:10.577Z,25.84
2019-01-03T23:48:26.673Z,25.76
2019-01-03T23:50:42.511Z,25.64
2019-01-03T23:52:58.145Z,25.64
2019-01-03T23:55:06.039Z,25.69
2019-01-03T23:57:13.410Z,25.82
2019-01-03T23:59:37.779Z,25.91
